sensor_id;sensor_type;location;lat;lon;timestamp;pressure;altitude;pressure_sealevel;temperature;humidity
64340;BME280;63709;53.258;-8.814;2023-05-01T00:00:19;101958.63;;;16.83;100.00
64340;BME280;63709;53.258;-8.814;2023-05-01T00:02:44;101973.44;;;16.88;100.00
64340;BME280;63709;53.258;-8.814;2023-05-01T00:05:11;101962.44;;;16.80;100.00
64340;BME280;63709;53.258;-8.814;2023-05-01T00:07:36;101968.66;;;16.92;100.00
64340;BME280;63709;53.258;-8.814;2023-05-01T00:10:02;101965.22;;;16.90;100.00
64340;BME280;63709;53.258;-8.814;2023-05-01T00:12:28;101971.94;;;16.96;100.00
64340;BME280;63709;53.258;-8.814;2023-05-01T00:14:53;101955.28;;;16.90;100.00
64340;BME280;63709;53.258;-8.814;2023-05-01T00:17:20;101957.72;;;16.93;100.00
64340;BME280;63709;53.258;-8.814;2023-05-01T00:19:56;101973.78;;;16.95;100.00
64340;BME280;63709;53.258;-8.814;2023-05-01T00:22:22;101977.34;;;16.96;100.00
64340;BME280;63709;53.258;-8.814;2023-05-01T00:24:48;101952.72;;;16.89;100.00
64340;BME280;63709;53.258;-8.814;2023-05-01T00:27:21;101959.09;;;16.88;100.00
64340;BME280;63709;53.258;-8.814;2023-05-01T00:29:49;101951.25;;;16.85;100.00
64340;BME280;63709;53.258;-8.814;2023-05-01T00:32:14;101955.66;;;16.86;100.00
64340;BME280;63709;53.258;-8.814;2023-05-01T00:34:40;101941.47;;;16.84;100.00
64340;BME280;63709;53.258;-8.814;2023-05-01T00:37:06;101945.03;;;16.84;100.00
64340;BME280;63709;53.258;-8.814;2023-05-01T00:39:31;101956.41;;;16.88;100.00
64340;BME280;63709;53.258;-8.814;2023-05-01T00:41:57;101966.19;;;16.89;100.00
64340;BME280;63709;53.258;-8.814;2023-05-01T00:44:29;101937.44;;;16.67;100.00
64340;BME280;63709;53.258;-8.814;2023-05-01T00:46:56;101958.38;;;16.86;100.00
64340;BME280;63709;53.258;-8.814;2023-05-01T00:49:25;101968.91;;;16.89;100.00
64340;BME280;63709;53.258;-8.814;2023-05-01T00:51:50;101960.66;;;16.90;100.00
64340;BME280;63709;53.258;-8.814;2023-05-01T00:54:19;101956.25;;;16.89;100.00
64340;BME280;63709;53.258;-8.814;2023-05-01T00:56:48;101956.31;;;16.78;100.00
64340;BME280;63709;53.258;-8.814;2023-05-01T00:59:15;101955.41;;;16.89;100.00
64340;BME280;63709;53.258;-8.814;2023-05-01T01:01:42;101946.50;;;16.77;100.00
64340;BME280;63709;53.258;-8.814;2023-05-01T01:04:08;101954.06;;;16.83;100.00
64340;BME280;63709;53.258;-8.814;2023-05-01T01:09:48;101951.31;;;16.74;100.00
64340;BME280;63709;53.258;-8.814;2023-05-01T01:12:38;101952.50;;;16.69;100.00
64340;BME280;63709;53.258;-8.814;2023-05-01T01:15:29;101953.84;;;16.64;100.00
64340;BME280;63709;53.258;-8.814;2023-05-01T01:20:40;101955.31;;;16.68;100.00
64340;BME280;63709;53.258;-8.814;2023-05-01T01:23:19;101960.59;;;16.69;100.00
64340;BME280;63709;53.258;-8.814;2023-05-01T01:26:11;101952.16;;;16.63;100.00
64340;BME280;63709;53.258;-8.814;2023-05-01T01:29:43;101939.16;;;16.57;100.00
64340;BME280;63709;53.258;-8.814;2023-05-01T01:34:54;101932.53;;;16.61;100.00
64340;BME280;63709;53.258;-8.814;2023-05-01T01:37:29;101933.78;;;16.57;100.00
64340;BME280;63709;53.258;-8.814;2023-05-01T01:39:59;101939.41;;;16.65;100.00
64340;BME280;63709;53.258;-8.814;2023-05-01T01:42:35;101936.22;;;16.60;100.00
64340;BME280;63709;53.258;-8.814;2023-05-01T01:45:07;101943.84;;;16.55;100.00
64340;BME280;63709;53.258;-8.814;2023-05-01T01:47:40;101949.25;;;16.55;100.00
64340;BME280;63709;53.258;-8.814;2023-05-01T01:50:09;101945.31;;;16.59;100.00
64340;BME280;63709;53.258;-8.814;2023-05-01T01:52:37;101936.00;;;16.52;100.00
64340;BME280;63709;53.258;-8.814;2023-05-01T01:55:08;101949.25;;;16.55;100.00
64340;BME280;63709;53.258;-8.814;2023-05-01T01:57:39;101939.81;;;16.49;100.00
64340;BME280;63709;53.258;-8.814;2023-05-01T02:00:10;101930.16;;;16.47;100.00
64340;BME280;63709;53.258;-8.814;2023-05-01T02:02:38;101941.91;;;16.45;100.00
64340;BME280;63709;53.258;-8.814;2023-05-01T02:05:06;101950.19;;;16.54;100.00
64340;BME280;63709;53.258;-8.814;2023-05-01T02:07:34;101940.31;;;16.54;100.00
64340;BME280;63709;53.258;-8.814;2023-05-01T02:10:01;101934.41;;;16.49;100.00
64340;BME280;63709;53.258;-8.814;2023-05-01T02:12:28;101948.84;;;16.59;100.00
64340;BME280;63709;53.258;-8.814;2023-05-01T02:14:56;101950.09;;;16.55;100.00
64340;BME280;63709;53.258;-8.814;2023-05-01T02:17:23;101961.22;;;16.62;100.00
64340;BME280;63709;53.258;-8.814;2023-05-01T02:19:52;101951.19;;;16.53;100.00
64340;BME280;63709;53.258;-8.814;2023-05-01T02:22:20;101962.97;;;16.52;100.00
64340;BME280;63709;53.258;-8.814;2023-05-01T02:24:47;101956.22;;;16.46;100.00
64340;BME280;63709;53.258;-8.814;2023-05-01T02:27:22;101958.19;;;16.44;100.00
64340;BME280;63709;53.258;-8.814;2023-05-01T02:29:47;101939.81;;;16.38;100.00
64340;BME280;63709;53.258;-8.814;2023-05-01T02:32:15;101947.06;;;16.37;100.00
64340;BME280;63709;53.258;-8.814;2023-05-01T02:34:42;101953.91;;;16.41;100.00
64340;BME280;63709;53.258;-8.814;2023-05-01T02:37:10;101959.19;;;16.43;100.00
64340;BME280;63709;53.258;-8.814;2023-05-01T02:39:36;101963.94;;;16.51;100.00
64340;BME280;63709;53.258;-8.814;2023-05-01T02:42:02;101964.47;;;16.33;100.00
64340;BME280;63709;53.258;-8.814;2023-05-01T02:44:36;101955.88;;;16.39;100.00
64340;BME280;63709;53.258;-8.814;2023-05-01T02:47:04;101953.81;;;16.32;100.00
64340;BME280;63709;53.258;-8.814;2023-05-01T02:49:37;101956.25;;;16.35;100.00
64340;BME280;63709;53.258;-8.814;2023-05-01T02:52:04;101949.66;;;16.39;100.00
64340;BME280;63709;53.258;-8.814;2023-05-01T02:54:30;101954.50;;;16.45;100.00
64340;BME280;63709;53.258;-8.814;2023-05-01T02:56:56;101963.38;;;16.36;100.00
64340;BME280;63709;53.258;-8.814;2023-05-01T02:59:24;101958.69;;;16.38;100.00
64340;BME280;63709;53.258;-8.814;2023-05-01T03:01:49;101962.38;;;16.37;100.00
64340;BME280;63709;53.258;-8.814;2023-05-01T03:04:16;101964.69;;;16.41;100.00
64340;BME280;63709;53.258;-8.814;2023-05-01T03:06:42;101966.78;;;16.27;100.00
64340;BME280;63709;53.258;-8.814;2023-05-01T03:09:09;101973.78;;;16.29;100.00
64340;BME280;63709;53.258;-8.814;2023-05-01T03:11:36;101952.72;;;16.12;100.00
64340;BME280;63709;53.258;-8.814;2023-05-01T03:14:02;101981.97;;;16.28;100.00
64340;BME280;63709;53.258;-8.814;2023-05-01T03:16:27;101970.72;;;16.23;100.00
64340;BME280;63709;53.258;-8.814;2023-05-01T03:18:52;101987.88;;;16.21;100.00
64340;BME280;63709;53.258;-8.814;2023-05-01T03:21:18;101986.28;;;16.19;100.00
64340;BME280;63709;53.258;-8.814;2023-05-01T03:23:43;101998.66;;;16.21;100.00
64340;BME280;63709;53.258;-8.814;2023-05-01T03:26:09;102000.25;;;16.24;100.00
64340;BME280;63709;53.258;-8.814;2023-05-01T03:28:34;102003.28;;;16.19;100.00
64340;BME280;63709;53.258;-8.814;2023-05-01T03:31:00;102003.19;;;16.21;100.00
64340;BME280;63709;53.258;-8.814;2023-05-01T03:33:26;101982.97;;;16.04;100.00
64340;BME280;63709;53.258;-8.814;2023-05-01T03:36:00;101998.41;;;16.02;100.00
64340;BME280;63709;53.258;-8.814;2023-05-01T03:38:32;102011.59;;;16.05;100.00
64340;BME280;63709;53.258;-8.814;2023-05-01T03:40:59;102015.28;;;16.15;100.00
64340;BME280;63709;53.258;-8.814;2023-05-01T03:43:24;102006.84;;;16.09;100.00
64340;BME280;63709;53.258;-8.814;2023-05-01T03:45:50;102011.38;;;16.08;100.00
64340;BME280;63709;53.258;-8.814;2023-05-01T03:48:19;102017.50;;;15.99;100.00
64340;BME280;63709;53.258;-8.814;2023-05-01T03:50:45;101998.28;;;16.04;100.00
64340;BME280;63709;53.258;-8.814;2023-05-01T03:53:11;102013.81;;;16.00;100.00
64340;BME280;63709;53.258;-8.814;2023-05-01T03:55:39;102017.88;;;16.06;100.00
64340;BME280;63709;53.258;-8.814;2023-05-01T03:58:05;102021.53;;;16.05;100.00
64340;BME280;63709;53.258;-8.814;2023-05-01T04:00:31;102005.88;;;16.10;100.00
64340;BME280;63709;53.258;-8.814;2023-05-01T04:02:57;102005.88;;;16.10;100.00
64340;BME280;63709;53.258;-8.814;2023-05-01T04:05:23;101999.03;;;16.06;100.00
64340;BME280;63709;53.258;-8.814;2023-05-01T04:07:50;102009.91;;;16.04;100.00
64340;BME280;63709;53.258;-8.814;2023-05-01T04:10:15;102008.66;;;15.97;100.00
64340;BME280;63709;53.258;-8.814;2023-05-01T04:12:41;102008.66;;;15.86;100.00
64340;BME280;63709;53.258;-8.814;2023-05-01T04:15:08;101997.03;;;15.96;100.00
64340;BME280;63709;53.258;-8.814;2023-05-01T04:17:35;102002.44;;;15.96;100.00
64340;BME280;63709;53.258;-8.814;2023-05-01T04:20:02;101995.81;;;15.89;100.00
64340;BME280;63709;53.258;-8.814;2023-05-01T04:22:30;102001.81;;;15.93;100.00
64340;BME280;63709;53.258;-8.814;2023-05-01T04:24:55;102012.19;;;15.86;100.00
64340;BME280;63709;53.258;-8.814;2023-05-01T04:27:22;101998.38;;;15.80;100.00
64340;BME280;63709;53.258;-8.814;2023-05-01T04:29:49;102008.41;;;15.78;100.00
64340;BME280;63709;53.258;-8.814;2023-05-01T04:32:15;102010.25;;;15.77;100.00
64340;BME280;63709;53.258;-8.814;2023-05-01T04:34:44;102012.53;;;15.70;100.00
64340;BME280;63709;53.258;-8.814;2023-05-01T04:37:11;102007.22;;;15.58;100.00
64340;BME280;63709;53.258;-8.814;2023-05-01T04:39:37;102029.38;;;15.61;100.00
64340;BME280;63709;53.258;-8.814;2023-05-01T04:42:03;102034.25;;;15.56;100.00
64340;BME280;63709;53.258;-8.814;2023-05-01T04:44:30;102024.81;;;15.51;100.00
64340;BME280;63709;53.258;-8.814;2023-05-01T04:47:00;102033.63;;;15.53;100.00
64340;BME280;63709;53.258;-8.814;2023-05-01T04:49:27;102027.63;;;15.49;100.00
64340;BME280;63709;53.258;-8.814;2023-05-01T04:51:52;102032.66;;;15.54;100.00
64340;BME280;63709;53.258;-8.814;2023-05-01T04:54:18;102031.56;;;15.56;100.00
64340;BME280;63709;53.258;-8.814;2023-05-01T04:56:44;102026.78;;;15.60;100.00
64340;BME280;63709;53.258;-8.814;2023-05-01T04:59:10;102020.53;;;15.48;100.00
64340;BME280;63709;53.258;-8.814;2023-05-01T05:01:37;102022.97;;;15.51;100.00
64340;BME280;63709;53.258;-8.814;2023-05-01T05:04:04;102024.31;;;15.45;100.00
64340;BME280;63709;53.258;-8.814;2023-05-01T05:06:30;102028.13;;;15.54;100.00
64340;BME280;63709;53.258;-8.814;2023-05-01T05:08:56;102014.88;;;15.40;100.00
64340;BME280;63709;53.258;-8.814;2023-05-01T05:11:22;102023.22;;;15.48;100.00
64340;BME280;63709;53.258;-8.814;2023-05-01T05:13:48;102037.66;;;15.47;100.00
64340;BME280;63709;53.258;-8.814;2023-05-01T05:16:15;102036.66;;;15.48;100.00
64340;BME280;63709;53.258;-8.814;2023-05-01T05:18:41;102045.72;;;15.47;100.00
64340;BME280;63709;53.258;-8.814;2023-05-01T05:21:07;102040.66;;;15.42;100.00
64340;BME280;63709;53.258;-8.814;2023-05-01T05:23:35;102029.63;;;15.34;100.00
64340;BME280;63709;53.258;-8.814;2023-05-01T05:26:01;102040.06;;;15.39;100.00
64340;BME280;63709;53.258;-8.814;2023-05-01T05:28:28;102043.25;;;15.44;100.00
64340;BME280;63709;53.258;-8.814;2023-05-01T05:30:55;102048.19;;;15.50;100.00
64340;BME280;63709;53.258;-8.814;2023-05-01T05:33:21;102048.81;;;15.54;100.00
64340;BME280;63709;53.258;-8.814;2023-05-01T05:35:50;102040.97;;;15.51;100.00
64340;BME280;63709;53.258;-8.814;2023-05-01T05:38:16;102056.00;;;15.53;100.00
64340;BME280;63709;53.258;-8.814;2023-05-01T05:40:41;102054.28;;;15.52;100.00
64340;BME280;63709;53.258;-8.814;2023-05-01T05:43:07;102058.00;;;15.62;100.00
64340;BME280;63709;53.258;-8.814;2023-05-01T05:45:33;102060.50;;;15.65;100.00
64340;BME280;63709;53.258;-8.814;2023-05-01T05:47:59;102057.16;;;15.62;100.00
64340;BME280;63709;53.258;-8.814;2023-05-01T05:50:25;102065.00;;;15.65;100.00
64340;BME280;63709;53.258;-8.814;2023-05-01T05:52:51;102064.53;;;15.71;100.00
64340;BME280;63709;53.258;-8.814;2023-05-01T05:55:16;102046.56;;;15.71;100.00
64340;BME280;63709;53.258;-8.814;2023-05-01T05:57:43;102063.94;;;15.79;100.00
64340;BME280;63709;53.258;-8.814;2023-05-01T06:00:11;102063.94;;;15.79;100.00
64340;BME280;63709;53.258;-8.814;2023-05-01T06:02:37;102065.31;;;15.84;100.00
64340;BME280;63709;53.258;-8.814;2023-05-01T06:05:04;102065.31;;;15.84;100.00
64340;BME280;63709;53.258;-8.814;2023-05-01T06:07:29;102067.28;;;15.93;100.00
64340;BME280;63709;53.258;-8.814;2023-05-01T06:09:55;102075.00;;;15.98;100.00
64340;BME280;63709;53.258;-8.814;2023-05-01T06:12:27;102079.69;;;16.07;100.00
64340;BME280;63709;53.258;-8.814;2023-05-01T06:14:53;102080.31;;;16.11;100.00
64340;BME280;63709;53.258;-8.814;2023-05-01T06:17:19;102078.59;;;16.10;100.00
64340;BME280;63709;53.258;-8.814;2023-05-01T06:19:46;102065.47;;;16.05;100.00
64340;BME280;63709;53.258;-8.814;2023-05-01T06:22:12;102090.72;;;16.15;100.00
64340;BME280;63709;53.258;-8.814;2023-05-01T06:24:39;102086.78;;;16.08;100.00
64340;BME280;63709;53.258;-8.814;2023-05-01T06:27:05;102089.50;;;16.19;100.00
64340;BME280;63709;53.258;-8.814;2023-05-01T06:29:31;102104.72;;;16.20;100.00
64340;BME280;63709;53.258;-8.814;2023-05-01T06:31:56;102102.25;;;16.29;100.00
64340;BME280;63709;53.258;-8.814;2023-05-01T06:34:21;102092.44;;;16.28;100.00
64340;BME280;63709;53.258;-8.814;2023-05-01T06:36:47;102100.41;;;16.29;100.00
64340;BME280;63709;53.258;-8.814;2023-05-01T06:39:12;102101.28;;;16.30;100.00
64340;BME280;63709;53.258;-8.814;2023-05-01T06:41:39;102091.34;;;16.30;100.00
64340;BME280;63709;53.258;-8.814;2023-05-01T06:44:06;102104.22;;;16.38;100.00
64340;BME280;63709;53.258;-8.814;2023-05-01T06:46:31;102087.44;;;16.34;100.00
64340;BME280;63709;53.258;-8.814;2023-05-01T06:48:57;102100.44;;;16.40;100.00
64340;BME280;63709;53.258;-8.814;2023-05-01T06:51:22;102089.41;;;16.43;100.00
64340;BME280;63709;53.258;-8.814;2023-05-01T06:53:51;102102.38;;;16.50;100.00
64340;BME280;63709;53.258;-8.814;2023-05-01T06:56:17;102111.22;;;16.52;100.00
64340;BME280;63709;53.258;-8.814;2023-05-01T06:58:43;102112.44;;;16.59;100.00
64340;BME280;63709;53.258;-8.814;2023-05-01T07:01:09;102100.69;;;16.60;100.00
64340;BME280;63709;53.258;-8.814;2023-05-01T07:03:36;102110.47;;;16.61;100.00
64340;BME280;63709;53.258;-8.814;2023-05-01T07:06:02;102116.47;;;16.64;100.00
64340;BME280;63709;53.258;-8.814;2023-05-01T07:08:27;102117.34;;;16.65;100.00
64340;BME280;63709;53.258;-8.814;2023-05-01T07:10:55;102113.16;;;16.72;100.00
64340;BME280;63709;53.258;-8.814;2023-05-01T07:13:21;102127.78;;;16.58;100.00
64340;BME280;63709;53.258;-8.814;2023-05-01T07:15:47;102126.91;;;16.69;100.00
64340;BME280;63709;53.258;-8.814;2023-05-01T07:18:13;102125.56;;;16.63;100.00
64340;BME280;63709;53.258;-8.814;2023-05-01T07:20:38;102117.38;;;16.76;100.00
64340;BME280;63709;53.258;-8.814;2023-05-01T07:23:05;102124.25;;;16.80;100.00
64340;BME280;63709;53.258;-8.814;2023-05-01T07:25:31;102118.09;;;16.78;100.00
64340;BME280;63709;53.258;-8.814;2023-05-01T07:27:57;102124.34;;;16.79;100.00
64340;BME280;63709;53.258;-8.814;2023-05-01T07:30:25;102128.41;;;16.96;100.00
64340;BME280;63709;53.258;-8.814;2023-05-01T07:32:51;102107.53;;;16.86;100.00
64340;BME280;63709;53.258;-8.814;2023-05-01T07:35:17;102126.91;;;17.03;100.00
64340;BME280;63709;53.258;-8.814;2023-05-01T07:37:42;102116.13;;;17.03;100.00
64340;BME280;63709;53.258;-8.814;2023-05-01T07:40:08;102121.75;;;17.00;100.00
64340;BME280;63709;53.258;-8.814;2023-05-01T07:42:35;102130.09;;;17.08;100.00
64340;BME280;63709;53.258;-8.814;2023-05-01T07:45:02;102133.41;;;17.11;100.00
64340;BME280;63709;53.258;-8.814;2023-05-01T07:47:28;102134.13;;;17.25;100.00
64340;BME280;63709;53.258;-8.814;2023-05-01T07:49:55;102140.97;;;17.29;100.00
64340;BME280;63709;53.258;-8.814;2023-05-01T07:52:20;102133.47;;;17.32;100.00
64340;BME280;63709;53.258;-8.814;2023-05-01T07:54:51;102138.28;;;17.29;100.00
64340;BME280;63709;53.258;-8.814;2023-05-01T07:57:17;102136.44;;;17.29;100.00
64340;BME280;63709;53.258;-8.814;2023-05-01T07:59:43;102134.81;;;17.38;100.00
64340;BME280;63709;53.258;-8.814;2023-05-01T08:02:09;102130.44;;;17.26;100.00
64340;BME280;63709;53.258;-8.814;2023-05-01T08:04:35;102141.78;;;17.40;100.00
64340;BME280;63709;53.258;-8.814;2023-05-01T08:07:02;102142.91;;;17.38;100.00
64340;BME280;63709;53.258;-8.814;2023-05-01T08:09:27;102148.44;;;17.36;100.00
64340;BME280;63709;53.258;-8.814;2023-05-01T08:11:53;102132.84;;;17.40;100.00
64340;BME280;63709;53.258;-8.814;2023-05-01T08:14:20;102148.66;;;17.45;100.00
64340;BME280;63709;53.258;-8.814;2023-05-01T08:16:45;102147.03;;;17.53;100.00
64340;BME280;63709;53.258;-8.814;2023-05-01T08:19:11;102146.00;;;17.65;100.00
64340;BME280;63709;53.258;-8.814;2023-05-01T08:21:36;102146.63;;;17.69;100.00
64340;BME280;63709;53.258;-8.814;2023-05-01T08:24:02;102131.31;;;17.58;100.00
64340;BME280;63709;53.258;-8.814;2023-05-01T08:26:29;102128.63;;;17.58;100.00
64340;BME280;63709;53.258;-8.814;2023-05-01T08:28:55;102129.84;;;17.54;100.00
64340;BME280;63709;53.258;-8.814;2023-05-01T08:31:20;102147.13;;;17.63;100.00
64340;BME280;63709;53.258;-8.814;2023-05-01T08:33:46;102132.16;;;17.59;100.00
64340;BME280;63709;53.258;-8.814;2023-05-01T08:36:12;102144.31;;;17.53;100.00
64340;BME280;63709;53.258;-8.814;2023-05-01T08:38:38;102147.13;;;17.63;100.00
64340;BME280;63709;53.258;-8.814;2023-05-01T08:41:03;102138.97;;;17.74;100.00
64340;BME280;63709;53.258;-8.814;2023-05-01T08:43:30;102135.53;;;17.72;100.00
64340;BME280;63709;53.258;-8.814;2023-05-01T08:46:00;102149.91;;;17.84;100.00
64340;BME280;63709;53.258;-8.814;2023-05-01T08:48:29;102148.66;;;17.88;100.00
64340;BME280;63709;53.258;-8.814;2023-05-01T08:50:58;102138.31;;;17.93;100.00
64340;BME280;63709;53.258;-8.814;2023-05-01T08:53:26;102131.78;;;17.96;100.00
64340;BME280;63709;53.258;-8.814;2023-05-01T08:55:54;102126.78;;;17.91;100.00
64340;BME280;63709;53.258;-8.814;2023-05-01T08:58:23;102142.34;;;17.99;100.00
64340;BME280;63709;53.258;-8.814;2023-05-01T09:00:49;102125.97;;;18.00;100.00
64340;BME280;63709;53.258;-8.814;2023-05-01T09:03:16;102134.03;;;18.11;100.00
64340;BME280;63709;53.258;-8.814;2023-05-01T09:05:42;102137.56;;;18.12;100.00
64340;BME280;63709;53.258;-8.814;2023-05-01T09:08:08;102148.38;;;18.12;100.00
64340;BME280;63709;53.258;-8.814;2023-05-01T09:10:40;102132.38;;;17.99;100.00
64340;BME280;63709;53.258;-8.814;2023-05-01T09:13:08;102152.69;;;18.14;100.00
64340;BME280;63709;53.258;-8.814;2023-05-01T09:15:34;102153.16;;;17.99;100.00
64340;BME280;63709;53.258;-8.814;2023-05-01T09:18:01;102153.34;;;18.07;100.00
64340;BME280;63709;53.258;-8.814;2023-05-01T09:20:27;102148.84;;;17.96;100.00
64340;BME280;63709;53.258;-8.814;2023-05-01T09:22:54;102160.31;;;17.88;100.00
64340;BME280;63709;53.258;-8.814;2023-05-01T09:25:21;102169.13;;;17.90;100.00
64340;BME280;63709;53.258;-8.814;2023-05-01T09:27:47;102169.78;;;17.72;100.00
64340;BME280;63709;53.258;-8.814;2023-05-01T09:30:37;102165.41;;;17.59;100.00
64340;BME280;63709;53.258;-8.814;2023-05-01T09:33:13;102169.31;;;17.66;100.00
64340;BME280;63709;53.258;-8.814;2023-05-01T09:35:55;102170.78;;;17.71;100.00
64340;BME280;63709;53.258;-8.814;2023-05-01T09:38:25;102170.91;;;17.80;100.00
64340;BME280;63709;53.258;-8.814;2023-05-01T09:40:53;102173.81;;;17.88;100.00
64340;BME280;63709;53.258;-8.814;2023-05-01T09:43:25;102175.88;;;17.96;100.00
64340;BME280;63709;53.258;-8.814;2023-05-01T09:46:09;102178.88;;;17.82;100.00
64340;BME280;63709;53.258;-8.814;2023-05-01T09:48:36;102183.22;;;17.94;100.00
64340;BME280;63709;53.258;-8.814;2023-05-01T09:51:28;102173.47;;;17.82;100.00
64340;BME280;63709;53.258;-8.814;2023-05-01T09:53:56;102187.19;;;17.90;100.00
64340;BME280;63709;53.258;-8.814;2023-05-01T09:56:22;102187.28;;;18.00;100.00
64340;BME280;63709;53.258;-8.814;2023-05-01T09:58:50;102183.53;;;18.12;100.00
64340;BME280;63709;53.258;-8.814;2023-05-01T10:01:17;102166.66;;;17.99;100.00
64340;BME280;63709;53.258;-8.814;2023-05-01T10:03:42;102181.06;;;18.09;100.00
64340;BME280;63709;53.258;-8.814;2023-05-01T10:06:09;102168.56;;;17.76;100.00
64340;BME280;63709;53.258;-8.814;2023-05-01T10:08:46;102176.88;;;17.95;100.00
64340;BME280;63709;53.258;-8.814;2023-05-01T10:11:12;102187.34;;;18.09;100.00
64340;BME280;63709;53.258;-8.814;2023-05-01T10:13:39;102186.97;;;18.14;100.00
64340;BME280;63709;53.258;-8.814;2023-05-01T10:16:05;102191.88;;;17.88;100.00
64340;BME280;63709;53.258;-8.814;2023-05-01T10:18:36;102191.63;;;18.12;100.00
64340;BME280;63709;53.258;-8.814;2023-05-01T10:21:03;102190.53;;;18.35;100.00
64340;BME280;63709;53.258;-8.814;2023-05-01T10:23:29;102200.53;;;18.45;100.00
64340;BME280;63709;53.258;-8.814;2023-05-01T10:25:55;102206.41;;;18.29;100.00
64340;BME280;63709;53.258;-8.814;2023-05-01T10:28:23;102190.84;;;18.63;100.00
64340;BME280;63709;53.258;-8.814;2023-05-01T10:30:51;102183.06;;;18.49;100.00
64340;BME280;63709;53.258;-8.814;2023-05-01T10:33:21;102202.09;;;18.68;100.00
64340;BME280;63709;53.258;-8.814;2023-05-01T10:35:53;102193.13;;;18.68;100.00
64340;BME280;63709;53.258;-8.814;2023-05-01T10:38:31;102211.44;;;18.75;100.00
64340;BME280;63709;53.258;-8.814;2023-05-01T10:41:01;102195.06;;;18.77;100.00
64340;BME280;63709;53.258;-8.814;2023-05-01T10:43:29;102202.19;;;18.78;100.00
64340;BME280;63709;53.258;-8.814;2023-05-01T10:51:09;102194.38;;;18.63;100.00
64340;BME280;63709;53.258;-8.814;2023-05-01T10:53:37;102196.38;;;18.61;100.00
64340;BME280;63709;53.258;-8.814;2023-05-01T10:56:05;102210.34;;;18.67;100.00
64340;BME280;63709;53.258;-8.814;2023-05-01T10:58:56;102211.06;;;18.69;100.00
64340;BME280;63709;53.258;-8.814;2023-05-01T11:04:05;102206.88;;;18.76;100.00
64340;BME280;63709;53.258;-8.814;2023-05-01T11:06:35;102207.06;;;18.84;100.00
64340;BME280;63709;53.258;-8.814;2023-05-01T11:12:01;102191.50;;;18.76;100.00
64340;BME280;63709;53.258;-8.814;2023-05-01T11:14:27;102210.75;;;18.83;100.00
64340;BME280;63709;53.258;-8.814;2023-05-01T11:22:59;102224.28;;;18.83;100.00
64340;BME280;63709;53.258;-8.814;2023-05-01T11:25:26;102211.34;;;18.86;100.00
64340;BME280;63709;53.258;-8.814;2023-05-01T11:27:56;102221.22;;;18.97;100.00
64340;BME280;63709;53.258;-8.814;2023-05-01T11:30:23;102210.53;;;18.96;100.00
64340;BME280;63709;53.258;-8.814;2023-05-01T11:32:51;102210.44;;;19.07;100.00
64340;BME280;63709;53.258;-8.814;2023-05-01T11:35:22;102192.50;;;19.06;100.00
64340;BME280;63709;53.258;-8.814;2023-05-01T11:37:49;102220.06;;;19.30;100.00
64340;BME280;63709;53.258;-8.814;2023-05-01T11:40:33;102217.03;;;19.24;100.00
64340;BME280;63709;53.258;-8.814;2023-05-01T11:43:16;102216.94;;;19.35;100.00
64340;BME280;63709;53.258;-8.814;2023-05-01T11:45:43;102213.72;;;19.61;100.00
64340;BME280;63709;53.258;-8.814;2023-05-01T11:48:15;102201.72;;;19.53;100.00
64340;BME280;63709;53.258;-8.814;2023-05-01T11:50:41;102201.50;;;19.66;100.00
64340;BME280;63709;53.258;-8.814;2023-05-01T11:53:11;102151.97;;;19.45;100.00
64340;BME280;63709;53.258;-8.814;2023-05-01T11:55:38;102157.31;;;19.75;100.00
64340;BME280;63709;53.258;-8.814;2023-05-01T11:58:05;102200.53;;;20.06;100.00
64340;BME280;63709;53.258;-8.814;2023-05-01T12:00:33;102195.38;;;20.13;100.00
64340;BME280;63709;53.258;-8.814;2023-05-01T12:03:13;102167.44;;;19.93;100.00
64340;BME280;63709;53.258;-8.814;2023-05-01T12:05:42;102190.94;;;20.31;100.00
64340;BME280;63709;53.258;-8.814;2023-05-01T12:08:16;102186.91;;;20.45;100.00
64340;BME280;63709;53.258;-8.814;2023-05-01T12:10:55;102194.91;;;20.56;100.00
64340;BME280;63709;53.258;-8.814;2023-05-01T12:13:23;102184.22;;;20.54;100.00
64340;BME280;63709;53.258;-8.814;2023-05-01T12:15:52;102166.09;;;20.55;100.00
64340;BME280;63709;53.258;-8.814;2023-05-01T12:18:18;102164.34;;;20.64;100.00
64340;BME280;63709;53.258;-8.814;2023-05-01T12:20:52;102183.72;;;20.78;100.00
64340;BME280;63709;53.258;-8.814;2023-05-01T12:23:31;102179.91;;;20.42;100.00
64340;BME280;63709;53.258;-8.814;2023-05-01T12:25:57;102152.91;;;20.60;100.00
64340;BME280;63709;53.258;-8.814;2023-05-01T12:28:24;102173.50;;;20.43;100.00
64340;BME280;63709;53.258;-8.814;2023-05-01T12:30:52;102168.09;;;20.43;100.00
64340;BME280;63709;53.258;-8.814;2023-05-01T12:33:26;102178.69;;;20.17;97.99
64340;BME280;63709;53.258;-8.814;2023-05-01T12:35:52;102178.94;;;20.43;100.00
64340;BME280;63709;53.258;-8.814;2023-05-01T12:38:22;102179.09;;;20.22;100.00
64340;BME280;63709;53.258;-8.814;2023-05-01T12:40:58;102182.06;;;20.48;100.00
64340;BME280;63709;53.258;-8.814;2023-05-01T12:43:33;102186.91;;;20.45;100.00
64340;BME280;63709;53.258;-8.814;2023-05-01T12:45:59;102185.22;;;20.53;100.00
64340;BME280;63709;53.258;-8.814;2023-05-01T12:48:28;102177.81;;;20.36;100.00
64340;BME280;63709;53.258;-8.814;2023-05-01T12:50:54;102192.50;;;20.53;100.00
64340;BME280;63709;53.258;-8.814;2023-05-01T12:53:22;102195.38;;;20.22;100.00
64340;BME280;63709;53.258;-8.814;2023-05-01T12:55:50;102194.69;;;20.11;100.00
64340;BME280;63709;53.258;-8.814;2023-05-01T12:58:17;102196.50;;;20.20;100.00
64340;BME280;63709;53.258;-8.814;2023-05-01T13:00:51;102193.97;;;20.18;100.00